sensor_id;sensor_type;location;lat;lon;timestamp;P1;durP1;ratioP1;P2;durP2;ratioP2
52618;SDS011;38513;53.234;6.568;2023-08-31T00:02:21;7.40;;;1.58;;
52618;SDS011;38513;53.234;6.568;2023-08-31T00:04:47;5.70;;;1.45;;
52618;SDS011;38513;53.234;6.568;2023-08-31T00:07:17;5.53;;;1.65;;
52618;SDS011;38513;53.234;6.568;2023-08-31T00:09:43;5.80;;;1.80;;
52618;SDS011;38513;53.234;6.568;2023-08-31T00:12:10;6.00;;;1.73;;
52618;SDS011;38513;53.234;6.568;2023-08-31T00:14:39;5.20;;;1.73;;
52618;SDS011;38513;53.234;6.568;2023-08-31T00:17:05;5.60;;;1.70;;
52618;SDS011;38513;53.234;6.568;2023-08-31T00:19:31;5.05;;;1.60;;
52618;SDS011;38513;53.234;6.568;2023-08-31T00:21:57;5.72;;;1.95;;
52618;SDS011;38513;53.234;6.568;2023-08-31T00:24:23;5.80;;;1.58;;
52618;SDS011;38513;53.234;6.568;2023-08-31T00:26:55;5.23;;;1.87;;
52618;SDS011;38513;53.234;6.568;2023-08-31T00:29:21;6.90;;;1.90;;
52618;SDS011;38513;53.234;6.568;2023-08-31T00:31:48;4.80;;;1.60;;
52618;SDS011;38513;53.234;6.568;2023-08-31T00:34:16;7.10;;;2.10;;
52618;SDS011;38513;53.234;6.568;2023-08-31T00:36:43;7.05;;;2.13;;
52618;SDS011;38513;53.234;6.568;2023-08-31T00:39:09;4.95;;;1.90;;
52618;SDS011;38513;53.234;6.568;2023-08-31T00:41:36;7.05;;;2.05;;
52618;SDS011;38513;53.234;6.568;2023-08-31T00:44:02;8.48;;;2.30;;
52618;SDS011;38513;53.234;6.568;2023-08-31T00:46:32;7.70;;;2.63;;
52618;SDS011;38513;53.234;6.568;2023-08-31T00:48:59;6.80;;;2.22;;
52618;SDS011;38513;53.234;6.568;2023-08-31T00:51:25;7.43;;;2.58;;
52618;SDS011;38513;53.234;6.568;2023-08-31T00:53:52;9.55;;;2.90;;
52618;SDS011;38513;53.234;6.568;2023-08-31T00:56:24;6.60;;;2.80;;
52618;SDS011;38513;53.234;6.568;2023-08-31T00:58:51;7.57;;;2.60;;
52618;SDS011;38513;53.234;6.568;2023-08-31T01:01:39;8.00;;;3.08;;
52618;SDS011;38513;53.234;6.568;2023-08-31T01:09:16;8.00;;;2.90;;
52618;SDS011;38513;53.234;6.568;2023-08-31T01:12:04;8.25;;;3.17;;
52618;SDS011;38513;53.234;6.568;2023-08-31T01:17:33;6.50;;;2.80;;
52618;SDS011;38513;53.234;6.568;2023-08-31T01:20:02;5.55;;;2.40;;
52618;SDS011;38513;53.234;6.568;2023-08-31T01:22:33;7.30;;;2.53;;
52618;SDS011;38513;53.234;6.568;2023-08-31T01:25:05;8.27;;;2.60;;
52618;SDS011;38513;53.234;6.568;2023-08-31T01:27:34;7.57;;;2.45;;
52618;SDS011;38513;53.234;6.568;2023-08-31T01:30:01;5.75;;;2.33;;
52618;SDS011;38513;53.234;6.568;2023-08-31T01:32:30;8.52;;;2.40;;
52618;SDS011;38513;53.234;6.568;2023-08-31T01:35:06;8.55;;;2.58;;
52618;SDS011;38513;53.234;6.568;2023-08-31T01:37:35;8.30;;;2.38;;
52618;SDS011;38513;53.234;6.568;2023-08-31T01:42:57;7.17;;;2.23;;
52618;SDS011;38513;53.234;6.568;2023-08-31T01:45:27;6.22;;;2.20;;
52618;SDS011;38513;53.234;6.568;2023-08-31T01:47:53;6.60;;;2.10;;
52618;SDS011;38513;53.234;6.568;2023-08-31T01:50:21;6.28;;;2.30;;
52618;SDS011;38513;53.234;6.568;2023-08-31T01:52:47;6.45;;;2.10;;
52618;SDS011;38513;53.234;6.568;2023-08-31T01:55:13;6.18;;;2.25;;
52618;SDS011;38513;53.234;6.568;2023-08-31T01:57:41;8.90;;;2.20;;
52618;SDS011;38513;53.234;6.568;2023-08-31T02:00:08;6.33;;;1.93;;
52618;SDS011;38513;53.234;6.568;2023-08-31T02:02:35;8.43;;;2.17;;
52618;SDS011;38513;53.234;6.568;2023-08-31T02:05:01;6.38;;;1.88;;
52618;SDS011;38513;53.234;6.568;2023-08-31T02:07:29;6.10;;;1.90;;
52618;SDS011;38513;53.234;6.568;2023-08-31T02:09:55;8.18;;;2.00;;
52618;SDS011;38513;53.234;6.568;2023-08-31T02:12:22;7.35;;;1.90;;
52618;SDS011;38513;53.234;6.568;2023-08-31T02:14:48;6.90;;;1.90;;
52618;SDS011;38513;53.234;6.568;2023-08-31T02:17:17;6.95;;;2.08;;
52618;SDS011;38513;53.234;6.568;2023-08-31T02:19:43;5.18;;;1.60;;
52618;SDS011;38513;53.234;6.568;2023-08-31T02:22:10;6.80;;;1.88;;
52618;SDS011;38513;53.234;6.568;2023-08-31T02:24:36;5.60;;;1.70;;
52618;SDS011;38513;53.234;6.568;2023-08-31T02:27:02;6.78;;;1.83;;
52618;SDS011;38513;53.234;6.568;2023-08-31T02:29:29;6.03;;;1.77;;
52618;SDS011;38513;53.234;6.568;2023-08-31T02:31:55;7.05;;;1.85;;
52618;SDS011;38513;53.234;6.568;2023-08-31T02:34:21;5.40;;;1.63;;
52618;SDS011;38513;53.234;6.568;2023-08-31T02:36:50;6.78;;;1.80;;
52618;SDS011;38513;53.234;6.568;2023-08-31T02:39:19;5.85;;;1.95;;
52618;SDS011;38513;53.234;6.568;2023-08-31T02:41:45;5.47;;;1.52;;
52618;SDS011;38513;53.234;6.568;2023-08-31T02:44:11;6.47;;;1.65;;
52618;SDS011;38513;53.234;6.568;2023-08-31T02:46:37;7.13;;;1.67;;
52618;SDS011;38513;53.234;6.568;2023-08-31T02:49:04;4.20;;;1.40;;
52618;SDS011;38513;53.234;6.568;2023-08-31T02:51:30;5.75;;;1.60;;
52618;SDS011;38513;53.234;6.568;2023-08-31T02:53:56;5.85;;;1.65;;
52618;SDS011;38513;53.234;6.568;2023-08-31T02:56:22;5.63;;;1.33;;
52618;SDS011;38513;53.234;6.568;2023-08-31T02:58:48;5.93;;;1.40;;
52618;SDS011;38513;53.234;6.568;2023-08-31T03:01:15;6.03;;;1.50;;
52618;SDS011;38513;53.234;6.568;2023-08-31T03:03:41;5.90;;;1.30;;
52618;SDS011;38513;53.234;6.568;2023-08-31T03:06:09;7.63;;;1.40;;
52618;SDS011;38513;53.234;6.568;2023-08-31T03:08:36;4.90;;;1.30;;
52618;SDS011;38513;53.234;6.568;2023-08-31T03:11:02;4.35;;;1.48;;
52618;SDS011;38513;53.234;6.568;2023-08-31T03:13:32;5.10;;;1.25;;
52618;SDS011;38513;53.234;6.568;2023-08-31T03:15:58;5.60;;;1.20;;
52618;SDS011;38513;53.234;6.568;2023-08-31T03:18:25;6.10;;;1.20;;
52618;SDS011;38513;53.234;6.568;2023-08-31T03:20:51;5.78;;;3.10;;
52618;SDS011;38513;53.234;6.568;2023-08-31T03:23:17;5.75;;;1.10;;
52618;SDS011;38513;53.234;6.568;2023-08-31T03:25:43;5.97;;;1.20;;
52618;SDS011;38513;53.234;6.568;2023-08-31T03:28:09;3.65;;;0.90;;
52618;SDS011;38513;53.234;6.568;2023-08-31T03:30:36;6.78;;;1.08;;
52618;SDS011;38513;53.234;6.568;2023-08-31T03:33:02;8.48;;;1.30;;
52618;SDS011;38513;53.234;6.568;2023-08-31T03:35:28;6.45;;;1.17;;
52618;SDS011;38513;53.234;6.568;2023-08-31T03:37:55;7.95;;;1.45;;
52618;SDS011;38513;53.234;6.568;2023-08-31T03:40:21;4.50;;;1.00;;
52618;SDS011;38513;53.234;6.568;2023-08-31T03:42:51;4.13;;;1.23;;
52618;SDS011;38513;53.234;6.568;2023-08-31T03:45:19;4.47;;;1.10;;
52618;SDS011;38513;53.234;6.568;2023-08-31T03:47:45;4.90;;;1.02;;
52618;SDS011;38513;53.234;6.568;2023-08-31T03:50:11;4.20;;;1.20;;
52618;SDS011;38513;53.234;6.568;2023-08-31T03:52:40;5.05;;;1.20;;
52618;SDS011;38513;53.234;6.568;2023-08-31T03:55:06;4.47;;;1.20;;
52618;SDS011;38513;53.234;6.568;2023-08-31T03:57:32;4.45;;;1.10;;
52618;SDS011;38513;53.234;6.568;2023-08-31T03:59:58;7.20;;;1.10;;
52618;SDS011;38513;53.234;6.568;2023-08-31T04:02:25;5.35;;;1.23;;
52618;SDS011;38513;53.234;6.568;2023-08-31T04:04:51;5.57;;;1.20;;
52618;SDS011;38513;53.234;6.568;2023-08-31T04:07:17;6.22;;;1.30;;
52618;SDS011;38513;53.234;6.568;2023-08-31T04:09:43;4.65;;;1.17;;
52618;SDS011;38513;53.234;6.568;2023-08-31T04:12:09;4.97;;;1.30;;
52618;SDS011;38513;53.234;6.568;2023-08-31T04:14:35;5.05;;;1.40;;
52618;SDS011;38513;53.234;6.568;2023-08-31T04:17:02;4.97;;;1.20;;
52618;SDS011;38513;53.234;6.568;2023-08-31T04:19:30;6.35;;;1.70;;
52618;SDS011;38513;53.234;6.568;2023-08-31T04:21:56;8.43;;;1.58;;
52618;SDS011;38513;53.234;6.568;2023-08-31T04:24:22;6.75;;;1.42;;
52618;SDS011;38513;53.234;6.568;2023-08-31T04:26:49;7.93;;;1.90;;
52618;SDS011;38513;53.234;6.568;2023-08-31T04:29:16;6.65;;;1.40;;
52618;SDS011;38513;53.234;6.568;2023-08-31T04:31:42;6.13;;;1.90;;
52618;SDS011;38513;53.234;6.568;2023-08-31T04:34:08;6.78;;;1.55;;
52618;SDS011;38513;53.234;6.568;2023-08-31T04:36:35;7.00;;;1.67;;
52618;SDS011;38513;53.234;6.568;2023-08-31T04:39:01;5.57;;;1.65;;
52618;SDS011;38513;53.234;6.568;2023-08-31T04:41:28;6.68;;;1.90;;
52618;SDS011;38513;53.234;6.568;2023-08-31T04:43:55;8.07;;;1.80;;
52618;SDS011;38513;53.234;6.568;2023-08-31T04:46:21;8.25;;;2.10;;
52618;SDS011;38513;53.234;6.568;2023-08-31T04:48:47;7.53;;;2.10;;
52618;SDS011;38513;53.234;6.568;2023-08-31T04:51:35;6.93;;;1.98;;
52618;SDS011;38513;53.234;6.568;2023-08-31T04:54:00;7.67;;;2.20;;
52618;SDS011;38513;53.234;6.568;2023-08-31T04:56:31;7.28;;;2.20;;
52618;SDS011;38513;53.234;6.568;2023-08-31T04:58:58;7.32;;;2.25;;
52618;SDS011;38513;53.234;6.568;2023-08-31T05:01:25;7.63;;;2.30;;
52618;SDS011;38513;53.234;6.568;2023-08-31T05:03:51;7.47;;;2.53;;
52618;SDS011;38513;53.234;6.568;2023-08-31T05:06:17;8.32;;;2.72;;
52618;SDS011;38513;53.234;6.568;2023-08-31T05:08:43;7.37;;;2.60;;
52618;SDS011;38513;53.234;6.568;2023-08-31T05:11:09;7.03;;;2.67;;
52618;SDS011;38513;53.234;6.568;2023-08-31T05:13:38;14.52;;;13.43;;
52618;SDS011;38513;53.234;6.568;2023-08-31T05:16:07;22.45;;;20.83;;
52618;SDS011;38513;53.234;6.568;2023-08-31T05:18:33;22.65;;;20.75;;
52618;SDS011;38513;53.234;6.568;2023-08-31T05:21:01;10.37;;;3.70;;
52618;SDS011;38513;53.234;6.568;2023-08-31T05:23:27;8.90;;;3.27;;
52618;SDS011;38513;53.234;6.568;2023-08-31T05:25:53;10.68;;;3.35;;
52618;SDS011;38513;53.234;6.568;2023-08-31T05:28:22;7.20;;;2.80;;
52618;SDS011;38513;53.234;6.568;2023-08-31T05:30:49;7.73;;;2.93;;
52618;SDS011;38513;53.234;6.568;2023-08-31T05:33:18;6.93;;;2.78;;
52618;SDS011;38513;53.234;6.568;2023-08-31T05:35:47;8.95;;;2.97;;
52618;SDS011;38513;53.234;6.568;2023-08-31T05:38:14;14.07;;;3.13;;
52618;SDS011;38513;53.234;6.568;2023-08-31T05:40:40;10.27;;;3.10;;
52618;SDS011;38513;53.234;6.568;2023-08-31T05:43:14;9.23;;;3.05;;
52618;SDS011;38513;53.234;6.568;2023-08-31T05:45:40;9.30;;;2.88;;
52618;SDS011;38513;53.234;6.568;2023-08-31T05:48:07;8.93;;;2.80;;
52618;SDS011;38513;53.234;6.568;2023-08-31T05:50:33;11.13;;;3.35;;
52618;SDS011;38513;53.234;6.568;2023-08-31T05:53:02;12.75;;;3.05;;
52618;SDS011;38513;53.234;6.568;2023-08-31T05:55:29;7.32;;;2.50;;
52618;SDS011;38513;53.234;6.568;2023-08-31T05:57:55;10.15;;;2.65;;
52618;SDS011;38513;53.234;6.568;2023-08-31T06:00:22;7.78;;;2.35;;
52618;SDS011;38513;53.234;6.568;2023-08-31T06:02:48;9.15;;;2.67;;
52618;SDS011;38513;53.234;6.568;2023-08-31T06:05:14;7.73;;;2.27;;
52618;SDS011;38513;53.234;6.568;2023-08-31T06:07:46;8.93;;;2.22;;
52618;SDS011;38513;53.234;6.568;2023-08-31T06:10:12;8.93;;;2.28;;
52618;SDS011;38513;53.234;6.568;2023-08-31T06:12:40;7.63;;;2.08;;
52618;SDS011;38513;53.234;6.568;2023-08-31T06:15:06;6.90;;;2.15;;
52618;SDS011;38513;53.234;6.568;2023-08-31T06:17:33;9.23;;;2.30;;
52618;SDS011;38513;53.234;6.568;2023-08-31T06:20:00;6.65;;;1.60;;
52618;SDS011;38513;53.234;6.568;2023-08-31T06:22:27;8.00;;;1.88;;
52618;SDS011;38513;53.234;6.568;2023-08-31T06:24:53;7.13;;;1.80;;
52618;SDS011;38513;53.234;6.568;2023-08-31T06:27:19;6.03;;;1.83;;
52618;SDS011;38513;53.234;6.568;2023-08-31T06:29:48;9.48;;;2.00;;
52618;SDS011;38513;53.234;6.568;2023-08-31T06:32:15;8.23;;;1.67;;
52618;SDS011;38513;53.234;6.568;2023-08-31T06:34:42;6.00;;;1.70;;
52618;SDS011;38513;53.234;6.568;2023-08-31T06:37:08;8.48;;;2.00;;
52618;SDS011;38513;53.234;6.568;2023-08-31T06:39:37;8.48;;;1.50;;
52618;SDS011;38513;53.234;6.568;2023-08-31T06:42:04;7.50;;;1.90;;
52618;SDS011;38513;53.234;6.568;2023-08-31T06:44:30;6.68;;;1.50;;
52618;SDS011;38513;53.234;6.568;2023-08-31T06:46:56;11.90;;;4.10;;
52618;SDS011;38513;53.234;6.568;2023-08-31T06:49:23;7.70;;;2.65;;
52618;SDS011;38513;53.234;6.568;2023-08-31T06:51:49;7.90;;;1.70;;
52618;SDS011;38513;53.234;6.568;2023-08-31T06:54:15;6.75;;;1.40;;
52618;SDS011;38513;53.234;6.568;2023-08-31T06:56:41;7.70;;;1.58;;
52618;SDS011;38513;53.234;6.568;2023-08-31T06:59:08;7.90;;;1.20;;
52618;SDS011;38513;53.234;6.568;2023-08-31T07:01:34;5.82;;;1.20;;
52618;SDS011;38513;53.234;6.568;2023-08-31T07:04:00;7.35;;;1.20;;
52618;SDS011;38513;53.234;6.568;2023-08-31T07:06:27;7.78;;;1.85;;
52618;SDS011;38513;53.234;6.568;2023-08-31T07:08:53;6.37;;;1.33;;
52618;SDS011;38513;53.234;6.568;2023-08-31T07:11:20;6.38;;;1.33;;
52618;SDS011;38513;53.234;6.568;2023-08-31T07:13:46;6.72;;;1.17;;
52618;SDS011;38513;53.234;6.568;2023-08-31T07:16:13;6.25;;;1.33;;
52618;SDS011;38513;53.234;6.568;2023-08-31T07:18:39;6.70;;;1.23;;
52618;SDS011;38513;53.234;6.568;2023-08-31T07:21:05;5.82;;;1.23;;
52618;SDS011;38513;53.234;6.568;2023-08-31T07:23:32;5.73;;;1.20;;
52618;SDS011;38513;53.234;6.568;2023-08-31T07:25:58;5.68;;;1.10;;
52618;SDS011;38513;53.234;6.568;2023-08-31T07:28:25;5.93;;;1.10;;
52618;SDS011;38513;53.234;6.568;2023-08-31T07:31:03;5.33;;;1.10;;
52618;SDS011;38513;53.234;6.568;2023-08-31T07:33:30;4.70;;;1.10;;
52618;SDS011;38513;53.234;6.568;2023-08-31T07:35:57;7.18;;;2.25;;
52618;SDS011;38513;53.234;6.568;2023-08-31T07:38:24;9.95;;;3.85;;
52618;SDS011;38513;53.234;6.568;2023-08-31T07:40:51;7.60;;;1.10;;
52618;SDS011;38513;53.234;6.568;2023-08-31T07:43:17;6.53;;;1.08;;
52618;SDS011;38513;53.234;6.568;2023-08-31T07:45:43;7.28;;;1.25;;
52618;SDS011;38513;53.234;6.568;2023-08-31T07:48:10;5.47;;;0.98;;
52618;SDS011;38513;53.234;6.568;2023-08-31T07:50:36;5.82;;;1.00;;
52618;SDS011;38513;53.234;6.568;2023-08-31T07:53:02;5.95;;;0.90;;
52618;SDS011;38513;53.234;6.568;2023-08-31T07:55:28;4.68;;;0.90;;
52618;SDS011;38513;53.234;6.568;2023-08-31T07:57:55;4.73;;;1.00;;
52618;SDS011;38513;53.234;6.568;2023-08-31T08:00:21;5.28;;;1.08;;
52618;SDS011;38513;53.234;6.568;2023-08-31T08:02:49;5.05;;;0.93;;
52618;SDS011;38513;53.234;6.568;2023-08-31T08:05:15;4.88;;;0.95;;
52618;SDS011;38513;53.234;6.568;2023-08-31T08:07:41;4.85;;;1.08;;
52618;SDS011;38513;53.234;6.568;2023-08-31T08:10:09;4.35;;;0.85;;
52618;SDS011;38513;53.234;6.568;2023-08-31T08:12:38;4.68;;;0.60;;
52618;SDS011;38513;53.234;6.568;2023-08-31T08:15:05;5.40;;;0.98;;
52618;SDS011;38513;53.234;6.568;2023-08-31T08:17:35;4.78;;;0.82;;
52618;SDS011;38513;53.234;6.568;2023-08-31T08:20:01;3.53;;;0.85;;
52618;SDS011;38513;53.234;6.568;2023-08-31T08:22:28;4.63;;;0.80;;
52618;SDS011;38513;53.234;6.568;2023-08-31T08:24:54;3.80;;;0.77;;
52618;SDS011;38513;53.234;6.568;2023-08-31T08:27:20;5.32;;;0.80;;
52618;SDS011;38513;53.234;6.568;2023-08-31T08:29:47;3.60;;;0.88;;
52618;SDS011;38513;53.234;6.568;2023-08-31T08:32:14;3.38;;;0.88;;
52618;SDS011;38513;53.234;6.568;2023-08-31T08:34:40;3.47;;;0.70;;
52618;SDS011;38513;53.234;6.568;2023-08-31T08:37:06;5.75;;;0.93;;
52618;SDS011;38513;53.234;6.568;2023-08-31T08:39:32;4.35;;;0.90;;
52618;SDS011;38513;53.234;6.568;2023-08-31T08:41:59;3.65;;;0.70;;
52618;SDS011;38513;53.234;6.568;2023-08-31T08:44:25;5.25;;;0.80;;
52618;SDS011;38513;53.234;6.568;2023-08-31T08:46:52;3.40;;;0.70;;
52618;SDS011;38513;53.234;6.568;2023-08-31T08:49:18;4.18;;;0.68;;
52618;SDS011;38513;53.234;6.568;2023-08-31T08:51:45;4.18;;;0.80;;
52618;SDS011;38513;53.234;6.568;2023-08-31T08:54:16;2.88;;;0.65;;
52618;SDS011;38513;53.234;6.568;2023-08-31T08:56:43;4.95;;;1.00;;
52618;SDS011;38513;53.234;6.568;2023-08-31T08:59:09;5.13;;;0.90;;
52618;SDS011;38513;53.234;6.568;2023-08-31T09:01:39;3.58;;;0.70;;
52618;SDS011;38513;53.234;6.568;2023-08-31T09:04:05;2.58;;;0.70;;
52618;SDS011;38513;53.234;6.568;2023-08-31T09:06:32;4.07;;;0.80;;
52618;SDS011;38513;53.234;6.568;2023-08-31T09:08:59;3.72;;;0.73;;
52618;SDS011;38513;53.234;6.568;2023-08-31T09:11:26;4.50;;;1.10;;
52618;SDS011;38513;53.234;6.568;2023-08-31T09:13:52;3.60;;;0.70;;
52618;SDS011;38513;53.234;6.568;2023-08-31T09:18:51;2.70;;;0.70;;
52618;SDS011;38513;53.234;6.568;2023-08-31T09:21:20;3.15;;;0.70;;
52618;SDS011;38513;53.234;6.568;2023-08-31T09:23:56;4.07;;;0.80;;
52618;SDS011;38513;53.234;6.568;2023-08-31T09:26:25;4.53;;;0.90;;
52618;SDS011;38513;53.234;6.568;2023-08-31T09:28:52;3.67;;;0.70;;
52618;SDS011;38513;53.234;6.568;2023-08-31T09:31:18;3.20;;;0.70;;
52618;SDS011;38513;53.234;6.568;2023-08-31T09:33:50;4.57;;;0.80;;
52618;SDS011;38513;53.234;6.568;2023-08-31T09:36:17;3.33;;;0.75;;
52618;SDS011;38513;53.234;6.568;2023-08-31T09:38:44;4.38;;;0.88;;
52618;SDS011;38513;53.234;6.568;2023-08-31T09:41:10;4.70;;;1.10;;
52618;SDS011;38513;53.234;6.568;2023-08-31T09:43:36;3.28;;;0.80;;
52618;SDS011;38513;53.234;6.568;2023-08-31T09:46:03;3.85;;;0.80;;
52618;SDS011;38513;53.234;6.568;2023-08-31T09:48:29;2.75;;;0.60;;
52618;SDS011;38513;53.234;6.568;2023-08-31T09:50:56;2.60;;;0.60;;
52618;SDS011;38513;53.234;6.568;2023-08-31T09:53:25;2.35;;;0.63;;
52618;SDS011;38513;53.234;6.568;2023-08-31T09:55:52;3.05;;;0.70;;
52618;SDS011;38513;53.234;6.568;2023-08-31T09:58:20;3.22;;;0.70;;
52618;SDS011;38513;53.234;6.568;2023-08-31T10:00:48;3.20;;;0.70;;
52618;SDS011;38513;53.234;6.568;2023-08-31T10:03:15;7.50;;;0.82;;
52618;SDS011;38513;53.234;6.568;2023-08-31T10:05:44;3.10;;;0.70;;
52618;SDS011;38513;53.234;6.568;2023-08-31T10:08:11;4.35;;;1.08;;
52618;SDS011;38513;53.234;6.568;2023-08-31T10:10:37;4.75;;;1.15;;
52618;SDS011;38513;53.234;6.568;2023-08-31T10:13:07;5.07;;;1.00;;
52618;SDS011;38513;53.234;6.568;2023-08-31T10:15:34;3.70;;;0.98;;
52618;SDS011;38513;53.234;6.568;2023-08-31T10:18:07;5.18;;;1.00;;
52618;SDS011;38513;53.234;6.568;2023-08-31T10:20:33;3.78;;;0.98;;
52618;SDS011;38513;53.234;6.568;2023-08-31T10:23:06;2.50;;;0.82;;
52618;SDS011;38513;53.234;6.568;2023-08-31T10:28:17;3.92;;;0.90;;
52618;SDS011;38513;53.234;6.568;2023-08-31T10:30:59;2.97;;;0.73;;
52618;SDS011;38513;53.234;6.568;2023-08-31T10:38:37;3.55;;;0.90;;
52618;SDS011;38513;53.234;6.568;2023-08-31T10:43:45;3.72;;;0.90;;
52618;SDS011;38513;53.234;6.568;2023-08-31T10:46:15;5.03;;;1.25;;
52618;SDS011;38513;53.234;6.568;2023-08-31T10:49:01;5.25;;;1.05;;
52618;SDS011;38513;53.234;6.568;2023-08-31T10:51:40;3.70;;;0.90;;
52618;SDS011;38513;53.234;6.568;2023-08-31T10:54:07;3.58;;;0.90;;
52618;SDS011;38513;53.234;6.568;2023-08-31T10:56:59;5.60;;;0.90;;
52618;SDS011;38513;53.234;6.568;2023-08-31T11:02:08;3.55;;;0.80;;
52618;SDS011;38513;53.234;6.568;2023-08-31T11:04:54;4.60;;;0.90;;
52618;SDS011;38513;53.234;6.568;2023-08-31T11:07:24;3.17;;;0.80;;
52618;SDS011;38513;53.234;6.568;2023-08-31T11:09:50;4.60;;;1.00;;
52618;SDS011;38513;53.234;6.568;2023-08-31T11:12:21;4.60;;;1.15;;
52618;SDS011;38513;53.234;6.568;2023-08-31T11:14:49;4.18;;;0.93;;
52618;SDS011;38513;53.234;6.568;2023-08-31T11:17:15;4.40;;;0.90;;
52618;SDS011;38513;53.234;6.568;2023-08-31T11:19:42;4.07;;;0.80;;
52618;SDS011;38513;53.234;6.568;2023-08-31T11:22:08;4.78;;;1.10;;
52618;SDS011;38513;53.234;6.568;2023-08-31T11:24:35;4.70;;;1.00;;
52618;SDS011;38513;53.234;6.568;2023-08-31T11:27:01;5.03;;;1.20;;
52618;SDS011;38513;53.234;6.568;2023-08-31T11:29:30;4.47;;;1.00;;
52618;SDS011;38513;53.234;6.568;2023-08-31T11:31:57;5.07;;;1.10;;
52618;SDS011;38513;53.234;6.568;2023-08-31T11:34:27;5.82;;;1.23;;
52618;SDS011;38513;53.234;6.568;2023-08-31T11:36:57;6.00;;;1.27;;
52618;SDS011;38513;53.234;6.568;2023-08-31T11:39:23;7.15;;;2.10;;
52618;SDS011;38513;53.234;6.568;2023-08-31T11:41:50;5.43;;;1.05;;
52618;SDS011;38513;53.234;6.568;2023-08-31T11:44:16;4.20;;;1.10;;
52618;SDS011;38513;53.234;6.568;2023-08-31T11:46:43;4.13;;;1.02;;
52618;SDS011;38513;53.234;6.568;2023-08-31T11:49:10;4.25;;;0.88;;
52618;SDS011;38513;53.234;6.568;2023-08-31T11:51:37;6.47;;;1.27;;
52618;SDS011;38513;53.234;6.568;2023-08-31T11:54:05;5.63;;;1.55;;
52618;SDS011;38513;53.234;6.568;2023-08-31T11:56:38;5.32;;;1.27;;
52618;SDS011;38513;53.234;6.568;2023-08-31T11:59:07;5.82;;;1.10;;
52618;SDS011;38513;53.234;6.568;2023-08-31T12:01:39;6.00;;;1.23;;
52618;SDS011;38513;53.234;6.568;2023-08-31T12:04:09;5.82;;;1.50;;
52618;SDS011;38513;53.234;6.568;2023-08-31T12:06:36;5.07;;;1.42;;
52618;SDS011;38513;53.234;6.568;2023-08-31T12:09:02;5.78;;;1.30;;
52618;SDS011;38513;53.234;6.568;2023-08-31T12:11:30;4.97;;;0.90;;
52618;SDS011;38513;53.234;6.568;2023-08-31T12:14:00;8.63;;;1.83;;
52618;SDS011;38513;53.234;6.568;2023-08-31T12:16:36;6.75;;;1.45;;
52618;SDS011;38513;53.234;6.568;2023-08-31T12:19:02;6.95;;;1.67;;
52618;SDS011;38513;53.234;6.568;2023-08-31T12:21:31;5.30;;;1.15;;
52618;SDS011;38513;53.234;6.568;2023-08-31T12:24:00;6.50;;;1.27;;
52618;SDS011;38513;53.234;6.568;2023-08-31T12:26:28;6.87;;;1.53;;
52618;SDS011;38513;53.234;6.568;2023-08-31T12:28:55;4.88;;;1.33;;
52618;SDS011;38513;53.234;6.568;2023-08-31T12:31:22;5.72;;;1.30;;
52618;SDS011;38513;53.234;6.568;2023-08-31T12:33:48;7.03;;;1.20;;
52618;SDS011;38513;53.234;6.568;2023-08-31T12:36:15;6.07;;;1.27;;
52618;SDS011;38513;53.234;6.568;2023-08-31T12:38:41;7.03;;;1.80;;
52618;SDS011;38513;53.234;6.568;2023-08-31T12:41:07;6.32;;;1.48;;
52618;SDS011;38513;53.234;6.568;2023-08-31T12:43:34;5.70;;;1.50;;
52618;SDS011;38513;53.234;6.568;2023-08-31T12:46:00;7.03;;;1.52;;
52618;SDS011;38513;53.234;6.568;2023-08-31T12:48:27;6.60;;;1.65;;
52618;SDS011;38513;53.234;6.568;2023-08-31T12:50:53;5.97;;;1.35;;
52618;SDS011;38513;53.234;6.568;2023-08-31T12:53:23;5.05;;;1.30;;
52618;SDS011;38513;53.234;6.568;2023-08-31T12:55:49;7.05;;;1.15;;
52618;SDS011;38513;53.234;6.568;2023-08-31T12:58:15;6.38;;;1.50;;
52618;SDS011;38513;53.234;6.568;2023-08-31T13:00:42;5.53;;;1.20;;
52618;SDS011;38513;53.234;6.568;2023-08-31T13:03:12;6.85;;;1.20;;
52618;SDS011;38513;53.234;6.568;2023-08-31T13:05:39;4.65;;;1.10;;
52618;SDS011;38513;53.234;6.568;2023-08-31T13:08:06;5.13;;;1.00;;
52618;SDS011;38513;53.234;6.568;2023-08-31T13:10:32;5.88;;;1.10;;
52618;SDS011;38513;53.234;6.568;2023-08-31T13:12:58;7.00;;;1.40;;
52618;SDS011;38513;53.234;6.568;2023-08-31T13:15:24;5.63;;;1.10;;
52618;SDS011;38513;53.234;6.568;2023-08-31T13:17:50;4.55;;;1.08;;
52618;SDS011;38513;53.234;6.568;2023-08-31T13:20:17;5.68;;;1.05;;
52618;SDS011;38513;53.234;6.568;2023-08-31T13:22:43;6.20;;;1.30;;
52618;SDS011;38513;53.234;6.568;2023-08-31T13:25:09;6.07;;;1.30;;
52618;SDS011;38513;53.234;6.568;2023-08-31T13:27:39;4.28;;;1.10;;
52618;SDS011;38513;53.234;6.568;2023-08-31T13:30:05;6.40;;;1.10;;
52618;SDS011;38513;53.234;6.568;2023-08-31T13:32:32;5.80;;;1.50;;
52618;SDS011;38513;53.234;6.568;2023-08-31T13:34:58;4.70;;;1.20;;
52618;SDS011;38513;53.234;6.568;2023-08-31T13:37:25;4.73;;;1.13;;
52618;SDS011;38513;53.234;6.568;2023-08-31T13:39:51;4.73;;;1.00;;
52618;SDS011;38513;53.234;6.568;2023-08-31T13:42:20;7.25;;;1.25;;
52618;SDS011;38513;53.234;6.568;2023-08-31T13:44:46;7.07;;;1.45;;
52618;SDS011;38513;53.234;6.568;2023-08-31T13:47:12;5.38;;;1.20;;
52618;SDS011;38513;53.234;6.568;2023-08-31T13:49:38;6.00;;;1.50;;
52618;SDS011;38513;53.234;6.568;2023-08-31T13:52:05;5.80;;;1.38;;
52618;SDS011;38513;53.234;6.568;2023-08-31T13:54:33;6.10;;;1.15;;
52618;SDS011;38513;53.234;6.568;2023-08-31T13:56:59;5.15;;;1.25;;
52618;SDS011;38513;53.234;6.568;2023-08-31T13:59:26;9.57;;;4.28;;
52618;SDS011;38513;53.234;6.568;2023-08-31T14:01:53;7.10;;;1.33;;
52618;SDS011;38513;53.234;6.568;2023-08-31T14:04:19;7.53;;;1.60;;
52618;SDS011;38513;53.234;6.568;2023-08-31T14:06:47;6.10;;;1.37;;
52618;SDS011;38513;53.234;6.568;2023-08-31T14:09:16;5.10;;;1.53;;
52618;SDS011;38513;53.234;6.568;2023-08-31T14:11:43;6.53;;;1.42;;
52618;SDS011;38513;53.234;6.568;2023-08-31T14:14:10;6.45;;;1.20;;
52618;SDS011;38513;53.234;6.568;2023-08-31T14:16:36;6.85;;;1.40;;
52618;SDS011;38513;53.234;6.568;2023-08-31T14:19:05;6.70;;;1.65;;
52618;SDS011;38513;53.234;6.568;2023-08-31T14:21:31;5.00;;;1.30;;
52618;SDS011;38513;53.234;6.568;2023-08-31T14:23:57;6.35;;;1.42;;
52618;SDS011;38513;53.234;6.568;2023-08-31T14:26:24;5.95;;;1.40;;
52618;SDS011;38513;53.234;6.568;2023-08-31T14:28:50;6.10;;;1.25;;
52618;SDS011;38513;53.234;6.568;2023-08-31T14:31:17;6.85;;;1.20;;
52618;SDS011;38513;53.234;6.568;2023-08-31T14:33:43;6.60;;;1.53;;
52618;SDS011;38513;53.234;6.568;2023-08-31T14:36:10;5.90;;;1.40;;
52618;SDS011;38513;53.234;6.568;2023-08-31T14:38:36;7.43;;;1.60;;
52618;SDS011;38513;53.234;6.568;2023-08-31T14:41:02;7.00;;;1.73;;
52618;SDS011;38513;53.234;6.568;2023-08-31T14:43:32;9.23;;;1.58;;
52618;SDS011;38513;53.234;6.568;2023-08-31T14:45:58;7.37;;;1.53;;
52618;SDS011;38513;53.234;6.568;2023-08-31T14:48:29;7.87;;;1.50;;
52618;SDS011;38513;53.234;6.568;2023-08-31T14:50:55;6.47;;;1.30;;
52618;SDS011;38513;53.234;6.568;2023-08-31T14:53:24;6.03;;;1.20;;
52618;SDS011;38513;53.234;6.568;2023-08-31T14:55:50;7.45;;;1.40;;
52618;SDS011;38513;53.234;6.568;2023-08-31T14:58:17;5.63;;;1.30;;
52618;SDS011;38513;53.234;6.568;2023-08-31T15:00:43;5.33;;;1.30;;
52618;SDS011;38513;53.234;6.568;2023-08-31T15:03:12;6.93;;;1.40;;
52618;SDS011;38513;53.234;6.568;2023-08-31T15:05:39;7.18;;;1.60;;
52618;SDS011;38513;53.234;6.568;2023-08-31T15:08:08;6.13;;;1.30;;
52618;SDS011;38513;53.234;6.568;2023-08-31T15:10:37;6.03;;;1.30;;
52618;SDS011;38513;53.234;6.568;2023-08-31T15:13:04;6.40;;;1.60;;
52618;SDS011;38513;53.234;6.568;2023-08-31T15:15:30;6.15;;;1.60;;
52618;SDS011;38513;53.234;6.568;2023-08-31T15:17:56;6.85;;;1.45;;